sensor_id;sensor_type;location;lat;lon;timestamp;P1;durP1;ratioP1;P2;durP2;ratioP2
82646;SDS011;72325;41.910;22.404;2024-02-15T00:01:36;34.75;;;19.92;;
82646;SDS011;72325;41.910;22.404;2024-02-15T00:04:02;38.60;;;22.70;;
82646;SDS011;72325;41.910;22.404;2024-02-15T00:06:29;41.92;;;22.90;;
82646;SDS011;72325;41.910;22.404;2024-02-15T00:08:55;37.72;;;20.10;;
82646;SDS011;72325;41.910;22.404;2024-02-15T00:11:21;36.10;;;20.73;;
82646;SDS011;72325;41.910;22.404;2024-02-15T00:13:47;43.08;;;23.05;;
82646;SDS011;72325;41.910;22.404;2024-02-15T00:16:13;41.97;;;22.25;;
82646;SDS011;72325;41.910;22.404;2024-02-15T00:18:41;45.42;;;26.00;;
82646;SDS011;72325;41.910;22.404;2024-02-15T00:21:07;44.03;;;24.27;;
82646;SDS011;72325;41.910;22.404;2024-02-15T00:23:33;47.30;;;25.27;;
82646;SDS011;72325;41.910;22.404;2024-02-15T00:29:03;45.85;;;23.88;;
82646;SDS011;72325;41.910;22.404;2024-02-15T00:31:29;38.35;;;21.95;;
82646;SDS011;72325;41.910;22.404;2024-02-15T00:33:55;32.20;;;18.40;;
82646;SDS011;72325;41.910;22.404;2024-02-15T00:36:21;27.08;;;14.85;;
82646;SDS011;72325;41.910;22.404;2024-02-15T00:38:48;28.02;;;16.75;;
82646;SDS011;72325;41.910;22.404;2024-02-15T00:44:19;33.13;;;17.92;;
82646;SDS011;72325;41.910;22.404;2024-02-15T00:46:45;35.35;;;18.90;;
82646;SDS011;72325;41.910;22.404;2024-02-15T00:49:12;24.02;;;13.68;;
82646;SDS011;72325;41.910;22.404;2024-02-15T00:51:38;27.67;;;14.80;;
82646;SDS011;72325;41.910;22.404;2024-02-15T00:54:05;29.02;;;15.98;;
82646;SDS011;72325;41.910;22.404;2024-02-15T00:56:31;25.50;;;14.68;;
82646;SDS011;72325;41.910;22.404;2024-02-15T00:58:59;29.55;;;16.40;;
82646;SDS011;72325;41.910;22.404;2024-02-15T01:01:28;26.55;;;15.30;;
82646;SDS011;72325;41.910;22.404;2024-02-15T01:03:54;22.35;;;13.13;;
82646;SDS011;72325;41.910;22.404;2024-02-15T01:06:20;24.90;;;15.10;;
82646;SDS011;72325;41.910;22.404;2024-02-15T01:08:47;22.90;;;13.65;;
82646;SDS011;72325;41.910;22.404;2024-02-15T01:14:16;24.10;;;14.15;;
82646;SDS011;72325;41.910;22.404;2024-02-15T01:16:42;26.90;;;14.52;;
82646;SDS011;72325;41.910;22.404;2024-02-15T01:19:09;25.80;;;14.35;;
82646;SDS011;72325;41.910;22.404;2024-02-15T01:21:35;26.63;;;14.27;;
82646;SDS011;72325;41.910;22.404;2024-02-15T01:24:01;31.48;;;16.75;;
82646;SDS011;72325;41.910;22.404;2024-02-15T01:29:31;32.90;;;19.20;;
82646;SDS011;72325;41.910;22.404;2024-02-15T01:31:58;28.48;;;16.40;;
82646;SDS011;72325;41.910;22.404;2024-02-15T01:34:24;24.83;;;14.25;;
82646;SDS011;72325;41.910;22.404;2024-02-15T01:36:50;26.52;;;15.40;;
82646;SDS011;72325;41.910;22.404;2024-02-15T01:39:16;24.77;;;14.75;;
82646;SDS011;72325;41.910;22.404;2024-02-15T01:41:46;27.23;;;14.43;;
82646;SDS011;72325;41.910;22.404;2024-02-15T01:44:13;25.40;;;14.50;;
82646;SDS011;72325;41.910;22.404;2024-02-15T01:46:39;27.35;;;16.23;;
82646;SDS011;72325;41.910;22.404;2024-02-15T01:49:06;35.80;;;18.13;;
82646;SDS011;72325;41.910;22.404;2024-02-15T01:51:32;30.30;;;16.75;;
82646;SDS011;72325;41.910;22.404;2024-02-15T01:54:00;29.85;;;17.65;;
82646;SDS011;72325;41.910;22.404;2024-02-15T01:59:30;30.02;;;15.73;;
82646;SDS011;72325;41.910;22.404;2024-02-15T02:01:56;32.83;;;18.17;;
82646;SDS011;72325;41.910;22.404;2024-02-15T02:04:22;27.20;;;15.88;;
82646;SDS011;72325;41.910;22.404;2024-02-15T02:06:48;23.08;;;12.98;;
82646;SDS011;72325;41.910;22.404;2024-02-15T02:09:15;16.08;;;9.98;;
82646;SDS011;72325;41.910;22.404;2024-02-15T02:11:41;16.52;;;10.30;;
82646;SDS011;72325;41.910;22.404;2024-02-15T02:14:07;20.95;;;11.63;;
82646;SDS011;72325;41.910;22.404;2024-02-15T02:16:34;19.02;;;11.65;;
82646;SDS011;72325;41.910;22.404;2024-02-15T02:19:04;17.20;;;9.80;;
82646;SDS011;72325;41.910;22.404;2024-02-15T02:21:35;19.83;;;11.50;;
82646;SDS011;72325;41.910;22.404;2024-02-15T02:24:04;22.13;;;13.80;;
82646;SDS011;72325;41.910;22.404;2024-02-15T02:29:36;25.42;;;16.23;;
82646;SDS011;72325;41.910;22.404;2024-02-15T02:32:08;27.63;;;15.07;;
82646;SDS011;72325;41.910;22.404;2024-02-15T02:34:34;25.20;;;15.07;;
82646;SDS011;72325;41.910;22.404;2024-02-15T02:37:00;27.48;;;15.63;;
82646;SDS011;72325;41.910;22.404;2024-02-15T02:41:56;27.23;;;15.82;;
82646;SDS011;72325;41.910;22.404;2024-02-15T02:44:23;21.17;;;12.70;;
82646;SDS011;72325;41.910;22.404;2024-02-15T02:46:49;17.52;;;9.75;;
82646;SDS011;72325;41.910;22.404;2024-02-15T02:49:15;19.35;;;10.63;;
82646;SDS011;72325;41.910;22.404;2024-02-15T02:51:42;17.33;;;9.80;;
82646;SDS011;72325;41.910;22.404;2024-02-15T02:54:08;12.00;;;7.47;;
82646;SDS011;72325;41.910;22.404;2024-02-15T02:59:37;21.65;;;13.00;;
82646;SDS011;72325;41.910;22.404;2024-02-15T03:02:05;29.20;;;15.63;;
82646;SDS011;72325;41.910;22.404;2024-02-15T03:04:33;23.52;;;14.70;;
82646;SDS011;72325;41.910;22.404;2024-02-15T03:06:59;25.25;;;14.05;;
82646;SDS011;72325;41.910;22.404;2024-02-15T03:09:25;25.60;;;13.52;;
82646;SDS011;72325;41.910;22.404;2024-02-15T03:11:54;26.20;;;14.15;;
82646;SDS011;72325;41.910;22.404;2024-02-15T03:14:21;21.38;;;12.57;;
82646;SDS011;72325;41.910;22.404;2024-02-15T03:16:48;25.55;;;13.32;;
82646;SDS011;72325;41.910;22.404;2024-02-15T03:19:14;19.20;;;12.65;;
82646;SDS011;72325;41.910;22.404;2024-02-15T03:21:40;21.75;;;12.18;;
82646;SDS011;72325;41.910;22.404;2024-02-15T03:24:11;18.08;;;11.35;;
82646;SDS011;72325;41.910;22.404;2024-02-15T03:29:41;21.23;;;11.30;;
82646;SDS011;72325;41.910;22.404;2024-02-15T03:32:07;19.48;;;11.48;;
82646;SDS011;72325;41.910;22.404;2024-02-15T03:34:36;23.15;;;12.27;;
82646;SDS011;72325;41.910;22.404;2024-02-15T03:37:04;22.25;;;11.95;;
82646;SDS011;72325;41.910;22.404;2024-02-15T03:39:30;17.85;;;11.55;;
82646;SDS011;72325;41.910;22.404;2024-02-15T03:41:58;16.77;;;9.88;;
82646;SDS011;72325;41.910;22.404;2024-02-15T03:44:24;19.05;;;10.55;;
82646;SDS011;72325;41.910;22.404;2024-02-15T03:46:53;20.75;;;11.70;;
82646;SDS011;72325;41.910;22.404;2024-02-15T03:49:20;21.40;;;11.38;;
82646;SDS011;72325;41.910;22.404;2024-02-15T03:51:47;18.55;;;11.52;;
82646;SDS011;72325;41.910;22.404;2024-02-15T03:54:14;15.85;;;10.18;;
82646;SDS011;72325;41.910;22.404;2024-02-15T03:59:43;27.38;;;16.60;;
82646;SDS011;72325;41.910;22.404;2024-02-15T04:02:13;28.42;;;17.60;;
82646;SDS011;72325;41.910;22.404;2024-02-15T04:04:40;27.40;;;16.88;;
82646;SDS011;72325;41.910;22.404;2024-02-15T04:07:07;25.98;;;17.77;;
82646;SDS011;72325;41.910;22.404;2024-02-15T04:09:33;19.35;;;12.20;;
82646;SDS011;72325;41.910;22.404;2024-02-15T04:12:01;19.05;;;10.45;;
82646;SDS011;72325;41.910;22.404;2024-02-15T04:14:27;17.75;;;10.25;;
82646;SDS011;72325;41.910;22.404;2024-02-15T04:16:53;18.52;;;10.93;;
82646;SDS011;72325;41.910;22.404;2024-02-15T04:19:19;21.48;;;11.48;;
82646;SDS011;72325;41.910;22.404;2024-02-15T04:21:47;21.15;;;11.68;;
82646;SDS011;72325;41.910;22.404;2024-02-15T04:24:13;16.30;;;10.52;;
82646;SDS011;72325;41.910;22.404;2024-02-15T04:29:42;17.27;;;10.90;;
82646;SDS011;72325;41.910;22.404;2024-02-15T04:32:09;23.42;;;14.23;;
82646;SDS011;72325;41.910;22.404;2024-02-15T04:34:36;25.77;;;15.52;;
82646;SDS011;72325;41.910;22.404;2024-02-15T04:37:03;28.38;;;16.23;;
82646;SDS011;72325;41.910;22.404;2024-02-15T04:39:35;26.85;;;15.07;;
82646;SDS011;72325;41.910;22.404;2024-02-15T04:42:02;21.85;;;12.80;;
82646;SDS011;72325;41.910;22.404;2024-02-15T04:44:31;23.92;;;13.40;;
82646;SDS011;72325;41.910;22.404;2024-02-15T04:47:00;25.70;;;14.23;;
82646;SDS011;72325;41.910;22.404;2024-02-15T04:49:27;21.55;;;13.52;;
82646;SDS011;72325;41.910;22.404;2024-02-15T04:51:54;22.95;;;14.75;;
82646;SDS011;72325;41.910;22.404;2024-02-15T04:54:22;21.33;;;13.20;;
82646;SDS011;72325;41.910;22.404;2024-02-15T04:59:51;28.90;;;15.88;;
82646;SDS011;72325;41.910;22.404;2024-02-15T05:02:18;26.73;;;15.30;;
82646;SDS011;72325;41.910;22.404;2024-02-15T05:04:45;27.38;;;17.00;;
82646;SDS011;72325;41.910;22.404;2024-02-15T05:07:11;28.30;;;17.30;;
82646;SDS011;72325;41.910;22.404;2024-02-15T05:09:40;47.42;;;23.30;;
82646;SDS011;72325;41.910;22.404;2024-02-15T05:12:06;12.88;;;8.93;;
82646;SDS011;72325;41.910;22.404;2024-02-15T05:14:32;14.07;;;9.27;;
82646;SDS011;72325;41.910;22.404;2024-02-15T05:17:01;20.25;;;13.38;;
82646;SDS011;72325;41.910;22.404;2024-02-15T05:19:27;31.08;;;18.70;;
82646;SDS011;72325;41.910;22.404;2024-02-15T05:21:55;32.38;;;18.95;;
82646;SDS011;72325;41.910;22.404;2024-02-15T05:24:21;31.52;;;18.52;;
82646;SDS011;72325;41.910;22.404;2024-02-15T05:29:51;22.95;;;13.32;;
82646;SDS011;72325;41.910;22.404;2024-02-15T05:32:17;16.58;;;10.55;;
82646;SDS011;72325;41.910;22.404;2024-02-15T05:34:45;16.55;;;10.43;;
82646;SDS011;72325;41.910;22.404;2024-02-15T05:37:11;28.65;;;15.75;;
82646;SDS011;72325;41.910;22.404;2024-02-15T05:39:38;65.05;;;31.10;;
82646;SDS011;72325;41.910;22.404;2024-02-15T05:47:50;135.98;;;60.53;;
82646;SDS011;72325;41.910;22.404;2024-02-15T05:50:16;45.28;;;24.95;;
82646;SDS011;72325;41.910;22.404;2024-02-15T05:52:45;47.85;;;27.33;;
82646;SDS011;72325;41.910;22.404;2024-02-15T05:55:12;57.92;;;30.38;;
82646;SDS011;72325;41.910;22.404;2024-02-15T05:57:41;51.08;;;26.23;;
82646;SDS011;72325;41.910;22.404;2024-02-15T06:00:08;58.00;;;28.15;;
82646;SDS011;72325;41.910;22.404;2024-02-15T06:02:34;49.55;;;26.67;;
82646;SDS011;72325;41.910;22.404;2024-02-15T06:05:00;49.30;;;24.00;;
82646;SDS011;72325;41.910;22.404;2024-02-15T06:07:29;47.40;;;24.23;;
82646;SDS011;72325;41.910;22.404;2024-02-15T06:09:57;38.28;;;19.77;;
82646;SDS011;72325;41.910;22.404;2024-02-15T06:12:28;41.58;;;23.48;;
82646;SDS011;72325;41.910;22.404;2024-02-15T06:14:54;31.30;;;17.50;;
82646;SDS011;72325;41.910;22.404;2024-02-15T06:17:20;35.17;;;20.27;;
82646;SDS011;72325;41.910;22.404;2024-02-15T06:19:46;33.22;;;19.52;;
82646;SDS011;72325;41.910;22.404;2024-02-15T06:22:12;27.02;;;15.77;;
82646;SDS011;72325;41.910;22.404;2024-02-15T06:24:39;22.55;;;13.05;;
82646;SDS011;72325;41.910;22.404;2024-02-15T06:30:12;17.27;;;10.77;;
82646;SDS011;72325;41.910;22.404;2024-02-15T06:32:59;37.63;;;22.67;;
82646;SDS011;72325;41.910;22.404;2024-02-15T06:35:44;40.15;;;22.80;;
82646;SDS011;72325;41.910;22.404;2024-02-15T06:38:29;40.70;;;24.85;;
82646;SDS011;72325;41.910;22.404;2024-02-15T06:41:13;37.67;;;22.98;;
82646;SDS011;72325;41.910;22.404;2024-02-15T06:43:39;26.98;;;16.10;;
82646;SDS011;72325;41.910;22.404;2024-02-15T06:46:06;24.63;;;15.13;;
82646;SDS011;72325;41.910;22.404;2024-02-15T06:48:33;24.92;;;15.18;;
82646;SDS011;72325;41.910;22.404;2024-02-15T06:50:59;27.52;;;17.52;;
82646;SDS011;72325;41.910;22.404;2024-02-15T06:53:25;28.83;;;17.92;;
82646;SDS011;72325;41.910;22.404;2024-02-15T06:55:51;38.40;;;22.70;;
82646;SDS011;72325;41.910;22.404;2024-02-15T06:58:17;38.42;;;23.67;;
82646;SDS011;72325;41.910;22.404;2024-02-15T07:00:43;50.03;;;25.38;;
82646;SDS011;72325;41.910;22.404;2024-02-15T07:03:09;41.35;;;23.05;;
82646;SDS011;72325;41.910;22.404;2024-02-15T07:05:38;34.75;;;18.50;;
82646;SDS011;72325;41.910;22.404;2024-02-15T07:08:07;27.40;;;16.13;;
82646;SDS011;72325;41.910;22.404;2024-02-15T07:10:37;28.55;;;16.17;;
82646;SDS011;72325;41.910;22.404;2024-02-15T07:13:04;36.40;;;17.98;;
82646;SDS011;72325;41.910;22.404;2024-02-15T07:15:31;36.60;;;19.58;;
82646;SDS011;72325;41.910;22.404;2024-02-15T07:17:58;25.13;;;14.70;;
82646;SDS011;72325;41.910;22.404;2024-02-15T07:20:24;22.80;;;13.05;;
82646;SDS011;72325;41.910;22.404;2024-02-15T07:22:51;18.80;;;12.00;;
82646;SDS011;72325;41.910;22.404;2024-02-15T07:25:18;20.88;;;11.93;;
82646;SDS011;72325;41.910;22.404;2024-02-15T07:27:44;18.77;;;12.02;;
82646;SDS011;72325;41.910;22.404;2024-02-15T07:30:10;21.67;;;12.93;;
82646;SDS011;72325;41.910;22.404;2024-02-15T07:32:36;18.48;;;11.43;;
82646;SDS011;72325;41.910;22.404;2024-02-15T07:35:02;24.02;;;15.43;;
82646;SDS011;72325;41.910;22.404;2024-02-15T07:37:32;22.33;;;13.20;;
82646;SDS011;72325;41.910;22.404;2024-02-15T07:39:59;18.50;;;12.30;;
82646;SDS011;72325;41.910;22.404;2024-02-15T07:45:28;16.50;;;10.48;;
82646;SDS011;72325;41.910;22.404;2024-02-15T07:47:54;14.55;;;9.63;;
82646;SDS011;72325;41.910;22.404;2024-02-15T07:50:20;17.17;;;9.98;;
82646;SDS011;72325;41.910;22.404;2024-02-15T07:52:48;16.80;;;10.68;;
82646;SDS011;72325;41.910;22.404;2024-02-15T07:55:14;16.45;;;11.00;;
82646;SDS011;72325;41.910;22.404;2024-02-15T07:57:40;14.30;;;9.13;;
82646;SDS011;72325;41.910;22.404;2024-02-15T08:00:06;13.35;;;8.45;;
82646;SDS011;72325;41.910;22.404;2024-02-15T08:02:39;14.50;;;9.55;;
82646;SDS011;72325;41.910;22.404;2024-02-15T08:05:09;12.93;;;9.05;;
82646;SDS011;72325;41.910;22.404;2024-02-15T08:07:42;12.63;;;8.48;;
82646;SDS011;72325;41.910;22.404;2024-02-15T08:10:15;12.35;;;8.57;;
82646;SDS011;72325;41.910;22.404;2024-02-15T08:12:45;10.82;;;7.28;;
82646;SDS011;72325;41.910;22.404;2024-02-15T08:15:14;13.38;;;7.63;;
82646;SDS011;72325;41.910;22.404;2024-02-15T08:17:43;13.18;;;8.05;;
82646;SDS011;72325;41.910;22.404;2024-02-15T08:20:13;12.38;;;7.43;;
82646;SDS011;72325;41.910;22.404;2024-02-15T08:22:39;15.88;;;10.45;;
82646;SDS011;72325;41.910;22.404;2024-02-15T08:30:38;12.65;;;9.30;;
82646;SDS011;72325;41.910;22.404;2024-02-15T08:33:06;13.38;;;8.60;;
82646;SDS011;72325;41.910;22.404;2024-02-15T08:35:32;12.23;;;8.13;;
82646;SDS011;72325;41.910;22.404;2024-02-15T08:37:58;12.60;;;8.57;;
82646;SDS011;72325;41.910;22.404;2024-02-15T08:40:24;11.77;;;8.02;;
82646;SDS011;72325;41.910;22.404;2024-02-15T08:45:54;11.95;;;7.65;;
82646;SDS011;72325;41.910;22.404;2024-02-15T08:48:20;10.48;;;7.50;;
82646;SDS011;72325;41.910;22.404;2024-02-15T08:50:47;13.43;;;8.00;;
82646;SDS011;72325;41.910;22.404;2024-02-15T08:53:14;12.77;;;8.52;;
82646;SDS011;72325;41.910;22.404;2024-02-15T08:55:40;17.23;;;9.13;;
82646;SDS011;72325;41.910;22.404;2024-02-15T08:58:06;13.10;;;8.15;;
82646;SDS011;72325;41.910;22.404;2024-02-15T09:00:34;10.77;;;7.47;;
82646;SDS011;72325;41.910;22.404;2024-02-15T09:03:00;11.80;;;8.73;;
82646;SDS011;72325;41.910;22.404;2024-02-15T09:05:27;12.65;;;8.23;;
82646;SDS011;72325;41.910;22.404;2024-02-15T09:07:53;13.70;;;8.43;;
82646;SDS011;72325;41.910;22.404;2024-02-15T09:10:19;14.45;;;10.90;;
82646;SDS011;72325;41.910;22.404;2024-02-15T09:15:50;13.18;;;9.32;;
82646;SDS011;72325;41.910;22.404;2024-02-15T09:18:17;14.57;;;9.73;;
82646;SDS011;72325;41.910;22.404;2024-02-15T09:20:43;13.20;;;8.45;;
82646;SDS011;72325;41.910;22.404;2024-02-15T09:23:10;15.57;;;10.55;;
82646;SDS011;72325;41.910;22.404;2024-02-15T09:31:46;15.05;;;8.32;;
82646;SDS011;72325;41.910;22.404;2024-02-15T09:34:12;11.23;;;7.82;;
82646;SDS011;72325;41.910;22.404;2024-02-15T09:36:38;10.73;;;7.82;;
82646;SDS011;72325;41.910;22.404;2024-02-15T09:39:04;11.88;;;8.27;;
82646;SDS011;72325;41.910;22.404;2024-02-15T09:41:31;10.75;;;7.85;;
82646;SDS011;72325;41.910;22.404;2024-02-15T09:43:58;12.98;;;8.93;;
82646;SDS011;72325;41.910;22.404;2024-02-15T09:46:26;12.15;;;8.38;;
82646;SDS011;72325;41.910;22.404;2024-02-15T09:48:53;13.25;;;8.23;;
82646;SDS011;72325;41.910;22.404;2024-02-15T09:51:27;12.35;;;8.50;;
82646;SDS011;72325;41.910;22.404;2024-02-15T09:53:57;11.15;;;7.90;;
82646;SDS011;72325;41.910;22.404;2024-02-15T09:56:26;10.45;;;6.50;;
82646;SDS011;72325;41.910;22.404;2024-02-15T09:58:54;15.30;;;8.82;;
82646;SDS011;72325;41.910;22.404;2024-02-15T10:01:21;10.98;;;7.63;;
82646;SDS011;72325;41.910;22.404;2024-02-15T10:03:51;13.98;;;8.73;;
82646;SDS011;72325;41.910;22.404;2024-02-15T10:06:18;11.05;;;8.13;;
82646;SDS011;72325;41.910;22.404;2024-02-15T10:08:45;8.95;;;6.68;;
82646;SDS011;72325;41.910;22.404;2024-02-15T10:11:15;10.60;;;7.10;;
82646;SDS011;72325;41.910;22.404;2024-02-15T10:13:41;9.93;;;7.35;;
82646;SDS011;72325;41.910;22.404;2024-02-15T10:16:16;10.02;;;7.13;;
82646;SDS011;72325;41.910;22.404;2024-02-15T10:18:43;9.90;;;7.75;;
82646;SDS011;72325;41.910;22.404;2024-02-15T10:21:09;8.35;;;6.32;;
82646;SDS011;72325;41.910;22.404;2024-02-15T10:23:36;11.23;;;6.63;;
82646;SDS011;72325;41.910;22.404;2024-02-15T10:26:18;10.10;;;6.78;;
82646;SDS011;72325;41.910;22.404;2024-02-15T10:32:10;10.30;;;7.53;;
82646;SDS011;72325;41.910;22.404;2024-02-15T10:34:43;12.65;;;7.35;;
82646;SDS011;72325;41.910;22.404;2024-02-15T10:37:13;9.05;;;6.15;;
82646;SDS011;72325;41.910;22.404;2024-02-15T10:39:41;9.05;;;5.57;;
82646;SDS011;72325;41.910;22.404;2024-02-15T10:42:07;9.32;;;6.47;;
82646;SDS011;72325;41.910;22.404;2024-02-15T10:44:37;7.90;;;6.03;;
82646;SDS011;72325;41.910;22.404;2024-02-15T10:47:06;8.57;;;5.57;;
82646;SDS011;72325;41.910;22.404;2024-02-15T10:49:33;9.45;;;6.25;;
82646;SDS011;72325;41.910;22.404;2024-02-15T10:52:01;10.20;;;7.10;;
82646;SDS011;72325;41.910;22.404;2024-02-15T10:56:57;10.63;;;7.65;;
82646;SDS011;72325;41.910;22.404;2024-02-15T10:59:29;11.57;;;7.13;;
82646;SDS011;72325;41.910;22.404;2024-02-15T11:01:59;11.65;;;7.10;;
82646;SDS011;72325;41.910;22.404;2024-02-15T11:04:29;9.73;;;6.68;;
82646;SDS011;72325;41.910;22.404;2024-02-15T11:06:58;10.40;;;6.57;;
82646;SDS011;72325;41.910;22.404;2024-02-15T11:11:54;9.70;;;6.40;;
82646;SDS011;72325;41.910;22.404;2024-02-15T11:14:27;8.52;;;6.18;;
82646;SDS011;72325;41.910;22.404;2024-02-15T11:16:59;8.40;;;5.65;;
82646;SDS011;72325;41.910;22.404;2024-02-15T11:22:11;6.18;;;4.03;;
82646;SDS011;72325;41.910;22.404;2024-02-15T11:24:48;9.70;;;5.90;;
82646;SDS011;72325;41.910;22.404;2024-02-15T11:27:26;9.15;;;6.15;;
82646;SDS011;72325;41.910;22.404;2024-02-15T11:29:56;8.43;;;5.78;;
82646;SDS011;72325;41.910;22.404;2024-02-15T11:32:44;8.27;;;6.68;;
82646;SDS011;72325;41.910;22.404;2024-02-15T11:42:40;8.45;;;6.18;;
82646;SDS011;72325;41.910;22.404;2024-02-15T11:45:06;7.10;;;5.05;;
82646;SDS011;72325;41.910;22.404;2024-02-15T11:47:37;6.25;;;4.22;;
82646;SDS011;72325;41.910;22.404;2024-02-15T11:50:14;8.38;;;5.25;;
82646;SDS011;72325;41.910;22.404;2024-02-15T11:52:40;10.05;;;7.47;;
82646;SDS011;72325;41.910;22.404;2024-02-15T11:55:07;9.07;;;6.43;;
82646;SDS011;72325;41.910;22.404;2024-02-15T11:57:37;8.40;;;5.97;;
82646;SDS011;72325;41.910;22.404;2024-02-15T12:00:23;8.93;;;5.35;;
82646;SDS011;72325;41.910;22.404;2024-02-15T12:03:08;9.45;;;6.72;;
82646;SDS011;72325;41.910;22.404;2024-02-15T12:05:54;11.50;;;7.53;;
82646;SDS011;72325;41.910;22.404;2024-02-15T12:08:38;9.40;;;6.35;;
82646;SDS011;72325;41.910;22.404;2024-02-15T12:11:23;9.95;;;7.00;;
82646;SDS011;72325;41.910;22.404;2024-02-15T12:14:12;9.57;;;5.90;;
82646;SDS011;72325;41.910;22.404;2024-02-15T12:17:14;9.55;;;6.10;;
82646;SDS011;72325;41.910;22.404;2024-02-15T12:20:00;10.48;;;7.47;;
82646;SDS011;72325;41.910;22.404;2024-02-15T12:22:32;12.25;;;7.72;;
82646;SDS011;72325;41.910;22.404;2024-02-15T12:25:00;8.90;;;5.75;;
82646;SDS011;72325;41.910;22.404;2024-02-15T12:30:32;9.70;;;7.00;;
82646;SDS011;72325;41.910;22.404;2024-02-15T12:33:10;11.68;;;8.23;;
82646;SDS011;72325;41.910;22.404;2024-02-15T12:35:37;8.75;;;6.40;;
82646;SDS011;72325;41.910;22.404;2024-02-15T12:38:03;9.38;;;6.78;;
82646;SDS011;72325;41.910;22.404;2024-02-15T12:40:34;11.15;;;7.47;;
82646;SDS011;72325;41.910;22.404;2024-02-15T12:46:04;7.93;;;5.68;;
82646;SDS011;72325;41.910;22.404;2024-02-15T12:48:31;10.32;;;6.90;;
82646;SDS011;72325;41.910;22.404;2024-02-15T12:50:57;9.50;;;6.07;;
82646;SDS011;72325;41.910;22.404;2024-02-15T12:53:24;7.90;;;5.85;;
82646;SDS011;72325;41.910;22.404;2024-02-15T12:55:54;11.10;;;7.20;;
82646;SDS011;72325;41.910;22.404;2024-02-15T13:01:24;8.38;;;5.80;;
82646;SDS011;72325;41.910;22.404;2024-02-15T13:03:54;8.27;;;5.90;;
82646;SDS011;72325;41.910;22.404;2024-02-15T13:06:20;8.80;;;5.88;;
82646;SDS011;72325;41.910;22.404;2024-02-15T13:08:49;6.97;;;5.15;;
82646;SDS011;72325;41.910;22.404;2024-02-15T13:11:15;9.35;;;5.88;;
82646;SDS011;72325;41.910;22.404;2024-02-15T13:16:44;11.48;;;6.75;;
82646;SDS011;72325;41.910;22.404;2024-02-15T13:19:12;8.25;;;5.45;;
82646;SDS011;72325;41.910;22.404;2024-02-15T13:21:39;7.97;;;5.85;;
82646;SDS011;72325;41.910;22.404;2024-02-15T13:24:05;7.82;;;6.30;;
82646;SDS011;72325;41.910;22.404;2024-02-15T13:26:32;7.75;;;6.00;;
82646;SDS011;72325;41.910;22.404;2024-02-15T13:32:02;7.85;;;5.25;;
82646;SDS011;72325;41.910;22.404;2024-02-15T13:34:28;7.40;;;4.72;;
82646;SDS011;72325;41.910;22.404;2024-02-15T13:36:55;8.00;;;4.88;;
82646;SDS011;72325;41.910;22.404;2024-02-15T13:39:21;6.10;;;5.10;;
82646;SDS011;72325;41.910;22.404;2024-02-15T13:41:48;8.23;;;5.47;;
82646;SDS011;72325;41.910;22.404;2024-02-15T13:47:17;7.32;;;5.60;;
82646;SDS011;72325;41.910;22.404;2024-02-15T13:49:43;7.22;;;5.07;;
82646;SDS011;72325;41.910;22.404;2024-02-15T13:52:09;8.07;;;4.55;;
82646;SDS011;72325;41.910;22.404;2024-02-15T13:54:36;7.60;;;5.07;;
82646;SDS011;72325;41.910;22.404;2024-02-15T13:57:02;7.68;;;4.88;;
82646;SDS011;72325;41.910;22.404;2024-02-15T14:02:32;7.15;;;4.97;;
82646;SDS011;72325;41.910;22.404;2024-02-15T14:04:58;5.05;;;4.20;;
82646;SDS011;72325;41.910;22.404;2024-02-15T14:07:24;6.03;;;4.65;;
82646;SDS011;72325;41.910;22.404;2024-02-15T14:09:50;7.35;;;5.50;;
82646;SDS011;72325;41.910;22.404;2024-02-15T14:12:16;8.00;;;6.13;;
82646;SDS011;72325;41.910;22.404;2024-02-15T14:17:46;8.30;;;5.85;;
82646;SDS011;72325;41.910;22.404;2024-02-15T14:20:12;8.20;;;5.35;;
82646;SDS011;72325;41.910;22.404;2024-02-15T14:22:43;8.80;;;5.90;;
82646;SDS011;72325;41.910;22.404;2024-02-15T14:25:10;9.35;;;6.47;;
82646;SDS011;72325;41.910;22.404;2024-02-15T14:27:39;9.57;;;6.90;;
82646;SDS011;72325;41.910;22.404;2024-02-15T14:33:08;9.88;;;6.72;;
82646;SDS011;72325;41.910;22.404;2024-02-15T14:35:37;8.85;;;6.22;;
82646;SDS011;72325;41.910;22.404;2024-02-15T14:38:07;7.00;;;5.22;;
82646;SDS011;72325;41.910;22.404;2024-02-15T14:43:02;8.23;;;6.47;;
82646;SDS011;72325;41.910;22.404;2024-02-15T14:45:29;9.98;;;6.25;;
82646;SDS011;72325;41.910;22.404;2024-02-15T14:47:57;5.47;;;4.60;;
82646;SDS011;72325;41.910;22.404;2024-02-15T14:50:23;11.35;;;6.90;;
82646;SDS011;72325;41.910;22.404;2024-02-15T14:52:50;7.00;;;5.18;;
82646;SDS011;72325;41.910;22.404;2024-02-15T14:55:18;9.93;;;4.45;;
82646;SDS011;72325;41.910;22.404;2024-02-15T14:57:44;5.90;;;4.43;;
82646;SDS011;72325;41.910;22.404;2024-02-15T15:03:14;6.88;;;5.38;;
82646;SDS011;72325;41.910;22.404;2024-02-15T15:05:41;7.95;;;5.40;;
82646;SDS011;72325;41.910;22.404;2024-02-15T15:08:26;7.20;;;5.18;;
82646;SDS011;72325;41.910;22.404;2024-02-15T15:11:10;9.52;;;5.97;;
82646;SDS011;72325;41.910;22.404;2024-02-15T15:13:55;8.23;;;5.88;;
82646;SDS011;72325;41.910;22.404;2024-02-15T15:16:21;8.77;;;4.95;;
82646;SDS011;72325;41.910;22.404;2024-02-15T15:18:50;10.93;;;7.70;;
82646;SDS011;72325;41.910;22.404;2024-02-15T15:21:17;11.02;;;6.80;;
82646;SDS011;72325;41.910;22.404;2024-02-15T15:23:44;8.30;;;6.43;;
82646;SDS011;72325;41.910;22.404;2024-02-15T15:26:10;9.30;;;5.28;;
82646;SDS011;72325;41.910;22.404;2024-02-15T15:28:39;9.68;;;6.40;;
82646;SDS011;72325;41.910;22.404;2024-02-15T15:31:06;17.77;;;11.88;;
82646;SDS011;72325;41.910;22.404;2024-02-15T15:33:32;27.52;;;16.38;;
82646;SDS011;72325;41.910;22.404;2024-02-15T15:35:59;27.40;;;17.23;;
82646;SDS011;72325;41.910;22.404;2024-02-15T15:38:25;20.42;;;13.18;;
82646;SDS011;72325;41.910;22.404;2024-02-15T15:43:20;23.70;;;12.75;;
82646;SDS011;72325;41.910;22.404;2024-02-15T15:45:46;15.07;;;10.40;;
82646;SDS011;72325;41.910;22.404;2024-02-15T15:48:13;17.45;;;11.52;;
82646;SDS011;72325;41.910;22.404;2024-02-15T15:50:40;18.77;;;11.85;;
82646;SDS011;72325;41.910;22.404;2024-02-15T15:53:08;16.00;;;10.95;;
82646;SDS011;72325;41.910;22.404;2024-02-15T15:55:35;16.40;;;10.75;;
82646;SDS011;72325;41.910;22.404;2024-02-15T15:58:02;18.13;;;11.70;;
82646;SDS011;72325;41.910;22.404;2024-02-15T16:03:36;16.38;;;10.13;;
82646;SDS011;72325;41.910;22.404;2024-02-15T16:06:05;14.52;;;9.80;;
82646;SDS011;72325;41.910;22.404;2024-02-15T16:08:32;16.92;;;11.68;;
82646;SDS011;72325;41.910;22.404;2024-02-15T16:10:58;15.38;;;10.48;;
82646;SDS011;72325;41.910;22.404;2024-02-15T16:13:25;21.92;;;14.50;;
82646;SDS011;72325;41.910;22.404;2024-02-15T16:15:52;22.35;;;13.93;;
82646;SDS011;72325;41.910;22.404;2024-02-15T16:18:19;24.38;;;14.55;;
82646;SDS011;72325;41.910;22.404;2024-02-15T16:20:46;24.85;;;17.38;;
82646;SDS011;72325;41.910;22.404;2024-02-15T16:23:12;29.38;;;17.50;;
82646;SDS011;72325;41.910;22.404;2024-02-15T16:25:38;21.10;;;13.32;;
82646;SDS011;72325;41.910;22.404;2024-02-15T16:28:04;22.95;;;13.75;;
82646;SDS011;72325;41.910;22.404;2024-02-15T16:36:44;20.55;;;11.82;;